Airfield :
LOGIN :

Register | Disclaimer

   EN    FR    IT 

 










Legend :    VFR   Marginal VFR   IFR   Intensive IFR   Very Intensive IFR
Visi :
Ceiling :
>= 8 km
>= 3000ft
5 to 8 km
1000 to 3000 ft
1500m to 5 km
500 to 1000 ft
800 to 1500m
200 to 500 ft
< 800m
< 200 ft
Symbols :   Thunderstorms  Fog  Heavy snow  Heavy precipitations  Wind > 20 kt
SIGMETs :     Misc.  Thunderstorms  Icing  Turbulence  Mountain Waves  Volcanic Ashes







- Airport Elevation : 782 ft
- IATA code : BGY


LIME - Orio al Serio International - Bergamo

CURRENT METAR :
  • 222350Z VRB02KT 0500 R28/0225V0300U FG BKN001 05/04 Q1017

EXPIRED METARs :
  • 222320Z 10002KT 0300 R28/0300N FG BKN001 05/04 Q1017
  • 222250Z VRB02KT 0200 R28/0350V0450N FG BKN001 05/04 Q1017
  • 222220Z VRB01KT 0200 R28/0300N FG BKN001 05/04 Q1017
  • 222150Z VRB02KT 0300 R28/0450V0550U FG SCT001 05/04 Q1017
  • 222120Z VRB02KT 1500 0500E R28/0250V0600U BCFG SCT001 05/04 Q1017

TAF TAF LIME
Valid from the 23 at 00:00 until the 24 at 00:00 UTC


222300Z 2300/2324 VRB05KT 2000 BR BKN010
TEMPO 2300/2306 0200 FG
No reported NOTAMs for that airfield.



MET'MAP, your aeronautical weather chart ! - Copyright ORBIFLY December 2007 - Disclaimer

ORBIFLY MET'MAP TEAM :

Programming & Development : Alexandra Zaïnal
Concept & Development : Baudouin d'Aumeries
Co-Development & Prog : Marc-Olivier Méhu
Technical & hardware support : Manuel Goepfert

Contact : metmap@orbifly.com




SOURCES & CREDITS :

   NOAA